PILOTS ONLINE: 262    ATC ONLINE: 25

Location

IATA SKA
City Spokane
Country  United States
Latitude 47° 36' 54" N
Longitude 117° 39' 21" W
Elevation 2461 ft
Type Large Airport

Weather

METAR
2014/07/12 06:58
KSKA 120658Z AUTO 04004KT 10SM CLR 25/05 A3004 RMK AO2 SLP155 T02460052
TAF
2014/07/12 03:06
TAF KSKA 1203/1309 VRB06KT 9999 SKC QNH2997INS 
      BECMG 1217/1218 02009KT 9999 SKC QNH3005INS TX34/1223Z TN17/1212Z

Runways

05/23 13901 ft / 200 ft

Outbound flights

Inbound flights


Spotted incorrect airport information? Please login with your VATSIM ID.